Aldebaran — FH9425 — position and weather

sailwx.info

Track history (hours):
 
Tides and Currents Weather Stations Pressure Air Temp Water Temp Dewpoint Dewpoint Depression Visibility Wind Speed Wind Dir Waves Ship Positions

Aldebaran

Last reported at 2018-Jun-19 16:02 UTC. Time now 2018-Jun-22 13:30 UTC.
Position N 51°27' E 003°35'.

Length 12 m.

Type: Sailing vessel. MMSI: 227168430.

Date/timePositionNaut miles runAvg speedWind from/ knotsBaromVisibWave heightAir tempDewpointWater temp
2018-Jun-19 16:02N 51°27' E 003°35'0 1.8
2018-Jun-19 15:47N 51°27' E 003°36'0 0.5
2018-Jun-19 15:22N 51°27' E 003°36'1 3.4
2018-Jun-19 14:56N 51°26' E 003°34'3 6.7
2018-Jun-19 14:28N 51°25' E 003°29'3 6.2
2018-Jun-19 14:00N 51°24' E 003°25'15 4.9
2018-Jun-19 10:53N 51°18' E 003°02'2 4.7
2018-Jun-19 10:30N 51°17' E 002°60'2 4.5
2018-Jun-19 09:58N 51°16' E 002°56'  
2018-Jun-13 12:05N 51°14' E 002°55'0 2.2
2018-Jun-13 11:58N 51°15' E 002°55'4 8.2
2018-Jun-13 11:27N 51°13' E 002°49'4 8.5
2018-Jun-13 10:59N 51°11' E 002°43'4 8.4
2018-Jun-13 10:30N 51°09' E 002°37'4 7.6
2018-Jun-13 10:00N 51°08' E 002°32'3 6.3
2018-Jun-13 09:30N 51°05' E 002°28'3 6.0
2018-Jun-13 08:59N 51°04' E 002°24'2 3.3
2018-Jun-13 08:28N 51°03' E 002°22'  
Track history (hours):
 
Tides and Currents Weather Stations Pressure Air Temp Water Temp Dewpoint Dewpoint Depression Visibility Wind Speed Wind Dir Waves Ship Positions

Aldebaran

Last reported at 2018-Jun-19 16:02 UTC. Time now 2018-Jun-22 13:30 UTC.
Position N 51°27' E 003°35'.

Length 12 m.

Type: Sailing vessel. MMSI: 227168430.

Date/timePositionNaut miles runAvg speedWind from/ knotsBaromVisibWave heightAir tempDewpointWater temp
2018-Jun-19 16:02N 51°27' E 003°35'0 1.8
2018-Jun-19 15:47N 51°27' E 003°36'0 0.5
2018-Jun-19 15:22N 51°27' E 003°36'1 3.4
2018-Jun-19 14:56N 51°26' E 003°34'3 6.7
2018-Jun-19 14:28N 51°25' E 003°29'3 6.2
2018-Jun-19 14:00N 51°24' E 003°25'15 4.9
2018-Jun-19 10:53N 51°18' E 003°02'2 4.7
2018-Jun-19 10:30N 51°17' E 002°60'2 4.5
2018-Jun-19 09:58N 51°16' E 002°56'  
2018-Jun-13 12:05N 51°14' E 002°55'0 2.2
2018-Jun-13 11:58N 51°15' E 002°55'4 8.2
2018-Jun-13 11:27N 51°13' E 002°49'4 8.5
2018-Jun-13 10:59N 51°11' E 002°43'4 8.4
2018-Jun-13 10:30N 51°09' E 002°37'4 7.6
2018-Jun-13 10:00N 51°08' E 002°32'3 6.3
2018-Jun-13 09:30N 51°05' E 002°28'3 6.0
2018-Jun-13 08:59N 51°04' E 002°24'2 3.3
2018-Jun-13 08:28N 51°03' E 002°22'  

Dump ship's entire track history